Terminal Aerodrome Forecast
Issued by NWS

Home | Current Version | Previous Version | Graphics & Text | Print | Product List | Glossary On
Versions: 1 2 3 4 5 6 7 8 9 10 11 12 13 14 15 16 17 18 19 20 21
000
FTUS43 KICT 170520
TAFCNU
TAF
KCNU 170520Z 1706/1806 13007KT P6SM SCT100
     FM170800 03008KT P6SM VCTS OVC040CB
     FM171200 04007KT P6SM VCSH OVC030
     FM180200 08007KT P6SM VCTS BKN035CB=

USA.gov is the U.S. government's official web portal to all federal, state and local government web resources and services.